Time;durP1;ratioP1;P1;durP2;ratioP2;P2;SDS_P1;SDS_P2;PMS_P1;PMS_P2;Temp;Humidity;BMP_temperature;BMP_pressure;BME280_temperature;BME280_humidity;BME280_pressure;Samples;Min_cycle;Max_cycle;Signal;HPM_P1;HPM_P2
2021/10/13 00:01:19;;;;;;;5.28;2.17;;;;;;;13.84;48.22;101836.13;4993657;28;20054;-71
2021/10/13 00:03:47;;;;;;;6.22;2.30;;;;;;;13.83;48.29;101835.28;4978933;28;20113;-71
2021/10/13 00:06:13;;;;;;;4.38;2.20;;;;;;;13.83;48.39;101848.03;4993760;28;20104;-71
2021/10/13 00:08:40;;;;;;;4.88;2.25;;;;;;;13.81;48.06;101842.69;4991242;28;20682;-71
2021/10/13 00:11:07;;;;;;;5.03;2.22;;;;;;;13.81;48.08;101830.88;4977103;28;20081;-71
2021/10/13 00:13:34;;;;;;;4.55;2.05;;;;;;;13.80;48.41;101840.03;4992992;28;20062;-71
2021/10/13 00:16:00;;;;;;;4.55;2.13;;;;;;;13.79;48.30;101843.75;4991968;28;20090;-71
2021/10/13 00:18:27;;;;;;;4.80;2.22;;;;;;;13.78;48.22;101836.53;4992100;28;20046;-71
2021/10/13 00:20:54;;;;;;;3.38;2.00;;;;;;;13.77;48.34;101840.22;4975025;28;20053;-71
2021/10/13 00:23:21;;;;;;;3.20;2.13;;;;;;;13.77;48.16;101838.38;4990531;28;20113;-71
2021/10/13 00:25:47;;;;;;;3.90;1.75;;;;;;;13.76;48.48;101835.75;4992805;28;20086;-71
2021/10/13 00:28:14;;;;;;;4.97;2.33;;;;;;;13.74;48.10;101844.06;4992258;28;20085;-71
2021/10/13 00:30:40;;;;;;;5.40;2.17;;;;;;;13.74;48.36;101848.63;4992030;28;20666;-71
2021/10/13 00:33:07;;;;;;;5.07;2.05;;;;;;;13.73;48.13;101844.16;4982838;28;20046;-71
2021/10/13 00:35:34;;;;;;;3.78;1.85;;;;;;;13.70;48.05;101846.09;4990368;28;20478;-71
2021/10/13 00:38:00;;;;;;;3.63;1.77;;;;;;;13.71;48.47;101855.16;4991557;28;20549;-71
2021/10/13 00:40:29;;;;;;;3.53;1.88;;;;;;;13.68;48.40;101848.03;4991250;28;20474;-71
2021/10/13 00:42:56;;;;;;;4.07;1.98;;;;;;;13.66;48.17;101844.53;4991795;28;20516;-71
2021/10/13 00:45:23;;;;;;;5.55;2.10;;;;;;;13.67;48.19;101851.72;4992737;28;20161;-70
2021/10/13 00:47:50;;;;;;;5.13;2.03;;;;;;;13.65;48.17;101844.63;4973713;28;20054;-71
2021/10/13 00:50:16;;;;;;;6.65;2.30;;;;;;;13.63;48.39;101839.28;4991436;28;20104;-71
2021/10/13 00:52:44;;;;;;;3.25;1.70;;;;;;;13.63;48.21;101843.84;4997178;28;20120;-71
2021/10/13 00:55:22;;;;;;;3.15;1.70;;;;;;;13.61;48.11;101840.34;4991925;28;20051;-71
2021/10/13 00:57:51;;;;;;;4.88;2.00;;;;;;;13.60;48.41;101839.44;4990446;28;20133;-71
2021/10/13 01:00:20;;;;;;;4.63;2.13;;;;;;;13.60;48.31;101844.03;4992037;28;20073;-71
2021/10/13 01:02:57;;;;;;;4.47;2.50;;;;;;;13.60;48.39;101844.03;4990599;28;20053;-71
2021/10/13 01:05:36;;;;;;;3.53;1.77;;;;;;;13.58;48.30;101840.56;4989760;28;20046;-70
2021/10/13 01:08:27;;;;;;;5.25;2.20;;;;;;;13.55;47.97;101838.00;4990866;28;20093;-71
2021/10/13 01:11:02;;;;;;;3.67;2.00;;;;;;;13.53;48.19;101842.69;4991334;28;20046;-71
2021/10/13 01:13:48;;;;;;;3.30;1.83;;;;;;;13.51;48.11;101844.63;4991287;28;20061;-71
2021/10/13 01:16:31;;;;;;;3.95;1.83;;;;;;;13.48;47.85;101837.53;4991367;28;20050;-71
2021/10/13 01:19:10;;;;;;;3.85;1.83;;;;;;;13.45;48.02;101850.47;4990812;28;20145;-70
2021/10/13 01:22:08;;;;;;;4.22;2.10;;;;;;;13.43;48.02;101847.81;4989652;28;20382;-71
2021/10/13 01:24:56;;;;;;;4.65;2.08;;;;;;;13.39;47.91;101846.28;4991049;28;20054;-70
2021/10/13 01:27:54;;;;;;;3.53;1.90;;;;;;;13.34;47.77;101842.97;4983465;28;20117;-71
2021/10/13 01:30:23;;;;;;;4.25;2.03;;;;;;;13.32;47.99;101851.25;4985096;28;20383;-71
2021/10/13 01:33:02;;;;;;;3.88;1.83;;;;;;;13.31;48.02;101852.22;4990123;28;20081;-71
2021/10/13 01:35:32;;;;;;;4.53;1.95;;;;;;;13.25;47.97;101846.28;4990717;28;20056;-70
2021/10/13 01:38:04;;;;;;;4.53;2.10;;;;;;;13.25;48.12;101849.00;4990158;28;20042;-70
2021/10/13 01:40:32;;;;;;;7.07;2.33;;;;;;;13.20;47.63;101845.66;4991707;28;20179;-71
2021/10/13 01:43:01;;;;;;;3.80;2.40;;;;;;;13.19;47.64;101843.91;4989498;28;20043;-71
2021/10/13 01:45:28;;;;;;;4.25;2.40;;;;;;;13.15;47.71;101845.09;4991786;28;20085;-71
2021/10/13 01:47:58;;;;;;;3.97;2.15;;;;;;;13.14;47.84;101848.78;4989108;28;20120;-70
2021/10/13 01:50:25;;;;;;;5.90;3.42;;;;;;;13.10;47.61;101849.91;4991423;28;20050;-70
2021/10/13 01:52:54;;;;;;;6.10;2.63;;;;;;;13.06;47.78;101851.94;4990505;28;20556;-70
2021/10/13 01:55:24;;;;;;;3.60;2.30;;;;;;;13.04;48.18;101853.00;4989776;28;20134;-70
2021/10/13 01:57:56;;;;;;;5.85;2.78;;;;;;;13.01;47.93;101855.94;4965189;28;20057;-70
2021/10/13 02:00:23;;;;;;;4.35;2.22;;;;;;;12.95;47.93;101862.63;4988371;28;20054;-70
2021/10/13 02:02:52;;;;;;;4.90;2.67;;;;;;;12.94;47.73;101866.31;4990236;28;20042;-70
2021/10/13 02:05:22;;;;;;;4.82;2.42;;;;;;;12.90;47.67;101867.47;4990423;28;20078;-70
2021/10/13 02:07:50;;;;;;;4.78;2.45;;;;;;;12.87;48.17;101862.22;4989040;28;20105;-70
2021/10/13 02:10:21;;;;;;;4.53;2.30;;;;;;;12.87;47.71;101864.94;4992180;28;20054;-70
2021/10/13 02:12:52;;;;;;;5.00;2.33;;;;;;;12.83;47.95;101864.25;4990138;28;20046;-70
2021/10/13 02:15:20;;;;;;;5.72;2.20;;;;;;;12.81;48.00;101857.13;4991465;28;20057;-70
2021/10/13 02:17:51;;;;;;;4.32;2.22;;;;;;;12.80;47.89;101861.72;4988196;28;20054;-70
2021/10/13 02:20:19;;;;;;;5.65;2.30;;;;;;;12.78;47.87;101857.31;4991914;28;20054;-70
2021/10/13 02:22:50;;;;;;;4.88;2.35;;;;;;;12.77;47.92;101859.16;4978436;28;20073;-70
2021/10/13 02:25:17;;;;;;;5.70;2.50;;;;;;;12.73;48.21;101864.91;4988974;28;20050;-70
2021/10/13 02:27:48;;;;;;;3.65;2.28;;;;;;;12.72;47.66;101866.75;4989057;28;20064;-70
2021/10/13 02:30:14;;;;;;;4.47;2.63;;;;;;;12.68;47.90;101867.91;4991378;28;20124;-70
2021/10/13 02:32:41;;;;;;;4.30;2.20;;;;;;;12.64;47.83;101869.03;4990046;28;20445;-70
2021/10/13 02:35:09;;;;;;;5.72;2.40;;;;;;;12.62;48.21;101872.81;4991249;28;20058;-70
2021/10/13 02:37:36;;;;;;;3.95;2.58;;;;;;;12.61;47.88;101885.56;4988007;28;20078;-70
2021/10/13 02:40:04;;;;;;;3.92;2.72;;;;;;;12.58;47.87;101892.09;4991546;28;20077;-70
2021/10/13 02:42:33;;;;;;;5.03;2.30;;;;;;;12.56;47.67;101899.47;4989329;28;20133;-70
2021/10/13 02:45:00;;;;;;;6.75;3.15;;;;;;;12.53;47.96;101896.91;4990012;28;20077;-70
2021/10/13 02:47:56;;;;;;;7.97;3.70;;;;;;;12.52;47.84;101902.44;4988183;28;20056;-70
2021/10/13 02:50:28;;;;;;;8.02;3.85;;;;;;;12.44;47.96;101902.00;4987805;28;20455;-70
2021/10/13 02:53:04;;;;;;;7.63;3.08;;;;;;;12.42;48.25;101909.41;4989151;28;20054;-70
2021/10/13 02:55:34;;;;;;;6.95;3.53;;;;;;;12.40;48.23;101911.34;4980076;28;20078;-70
2021/10/13 02:58:11;;;;;;;7.90;3.80;;;;;;;12.39;48.20;101907.72;4988984;28;20050;-70
2021/10/13 03:00:39;;;;;;;10.43;4.85;;;;;;;12.34;48.15;101898.97;4990421;28;20081;-70
2021/10/13 03:03:16;;;;;;;8.23;4.07;;;;;;;12.36;48.03;101905.19;4989976;28;20069;-70
2021/10/13 03:05:45;;;;;;;7.47;3.85;;;;;;;12.33;48.31;101905.38;4994508;28;20058;-70
2021/10/13 03:08:15;;;;;;;8.27;3.67;;;;;;;12.34;48.17;101911.69;4994055;28;20077;-70
2021/10/13 03:10:46;;;;;;;7.20;3.75;;;;;;;12.31;47.88;101900.97;4994144;28;20497;-70
2021/10/13 03:13:15;;;;;;;6.80;3.10;;;;;;;12.29;48.08;101914.66;4994521;28;20054;-70
2021/10/13 03:15:43;;;;;;;5.80;2.92;;;;;;;12.27;48.13;101911.16;4994198;28;20092;-70
2021/10/13 03:18:14;;;;;;;6.30;3.25;;;;;;;12.27;48.03;101915.75;4975125;28;20074;-71
2021/10/13 03:20:42;;;;;;;5.75;3.33;;;;;;;12.23;48.32;101914.16;5000424;28;20517;-70
2021/10/13 03:23:08;;;;;;;5.32;3.35;;;;;;;12.20;47.98;101921.50;4991893;28;20460;-71
2021/10/13 03:25:35;;;;;;;7.10;3.30;;;;;;;12.20;48.01;101920.63;4994214;28;20081;-70
2021/10/13 03:28:03;;;;;;;5.88;2.88;;;;;;;12.20;48.34;101918.78;4990511;28;20562;-70
2021/10/13 03:30:31;;;;;;;5.43;3.00;;;;;;;12.19;48.11;101921.59;4992003;28;20097;-71
2021/10/13 03:32:58;;;;;;;6.65;3.13;;;;;;;12.17;47.94;101918.09;4991113;28;20505;-71
2021/10/13 03:35:25;;;;;;;4.57;2.50;;;;;;;12.17;48.09;101924.44;4993985;28;20130;-70
2021/10/13 03:37:54;;;;;;;7.30;2.65;;;;;;;12.16;48.08;101932.69;4992994;28;20074;-70
2021/10/13 03:40:21;;;;;;;4.90;2.55;;;;;;;12.14;48.29;101935.47;4993609;28;20390;-70
2021/10/13 03:42:48;;;;;;;3.90;2.20;;;;;;;12.13;48.18;101925.56;4993315;28;20505;-70
2021/10/13 03:45:17;;;;;;;4.15;2.50;;;;;;;12.14;48.24;101935.47;4994174;28;20058;-71
2021/10/13 03:47:44;;;;;;;4.10;2.45;;;;;;;12.14;48.29;101926.44;4983071;28;20066;-70
2021/10/13 03:50:12;;;;;;;6.78;3.20;;;;;;;12.13;48.08;101928.28;4992999;28;20811;-70
2021/10/13 03:52:40;;;;;;;4.72;2.88;;;;;;;12.13;48.46;101928.28;4999336;28;20042;-70
2021/10/13 03:55:08;;;;;;;5.07;2.45;;;;;;;12.13;48.40;101933.72;4993202;28;20109;-71
2021/10/13 03:57:35;;;;;;;4.70;2.70;;;;;;;12.12;48.41;101931.06;4992950;28;20643;-70
2021/10/13 04:00:07;;;;;;;5.97;3.08;;;;;;;12.14;48.38;101937.31;4992740;28;20050;-70
2021/10/13 04:02:33;;;;;;;4.13;2.40;;;;;;;12.12;48.47;101944.69;4990666;28;20137;-70
2021/10/13 04:05:00;;;;;;;5.22;2.83;;;;;;;12.11;48.50;101940.22;4994157;28;20477;-70
2021/10/13 04:07:27;;;;;;;5.38;2.72;;;;;;;12.11;48.68;101948.38;4990507;28;20070;-71
2021/10/13 04:09:54;;;;;;;4.53;2.40;;;;;;;12.11;48.48;101948.38;4993167;28;20070;-70
2021/10/13 04:12:21;;;;;;;3.97;2.63;;;;;;;12.12;48.57;101947.41;4992620;28;20054;-70
2021/10/13 04:14:49;;;;;;;4.97;2.70;;;;;;;12.11;48.42;101942.94;4993060;28;20781;-70
2021/10/13 04:17:16;;;;;;;4.07;2.55;;;;;;;12.11;48.71;101951.09;4991889;28;20481;-70
2021/10/13 04:19:43;;;;;;;5.20;2.60;;;;;;;12.11;48.65;101953.81;4977981;28;20046;-70
2021/10/13 04:22:09;;;;;;;5.90;3.03;;;;;;;12.11;48.62;101964.72;4992436;28;20078;-70
2021/10/13 04:24:36;;;;;;;4.68;2.63;;;;;;;12.12;48.70;101969.19;4992942;28;20108;-70
2021/10/13 04:27:03;;;;;;;4.05;2.65;;;;;;;12.10;48.72;101966.56;4992222;28;20085;-70
2021/10/13 04:29:30;;;;;;;4.35;2.70;;;;;;;12.08;48.72;101963.06;4991444;28;20066;-70
2021/10/13 04:31:57;;;;;;;4.55;2.70;;;;;;;12.10;48.36;101971.16;4985527;28;20050;-70
2021/10/13 04:34:23;;;;;;;5.22;2.92;;;;;;;12.08;48.95;101957.59;5004160;28;20096;-70
2021/10/13 04:36:50;;;;;;;4.20;2.60;;;;;;;12.09;48.77;101963.94;4991532;28;20054;-70
2021/10/13 04:39:18;;;;;;;4.68;2.40;;;;;;;12.09;48.92;101966.66;5008084;28;20058;-70
2021/10/13 04:41:44;;;;;;;5.32;2.60;;;;;;;12.10;48.51;101966.56;4988871;28;20077;-72
2021/10/13 04:44:11;;;;;;;5.78;2.83;;;;;;;12.11;48.83;101967.44;4991804;28;20485;-70
2021/10/13 04:46:38;;;;;;;4.80;2.70;;;;;;;12.12;49.29;101974.63;4988889;28;20050;-70
2021/10/13 04:49:04;;;;;;;4.10;2.58;;;;;;;12.12;48.96;101970.06;4985224;28;20098;-70
2021/10/13 04:51:31;;;;;;;4.97;2.83;;;;;;;12.13;49.17;101970.94;4992498;28;20376;-70
2021/10/13 04:53:58;;;;;;;4.70;2.58;;;;;;;12.14;49.10;101967.28;4987576;28;20544;-70
2021/10/13 04:56:24;;;;;;;5.43;2.80;;;;;;;12.14;48.74;101961.81;4986457;28;20050;-70
2021/10/13 04:58:51;;;;;;;4.97;2.53;;;;;;;12.14;49.10;101965.44;4995650;28;20042;-69
2021/10/13 05:01:18;;;;;;;4.45;2.67;;;;;;;12.15;48.80;101955.41;4990337;28;20090;-70
2021/10/13 05:03:51;;;;;;;4.80;2.85;;;;;;;12.19;49.07;101957.88;4990795;28;20046;-70
2021/10/13 05:06:18;;;;;;;6.00;3.33;;;;;;;12.14;49.11;101961.81;4991667;28;20060;-70
2021/10/13 05:08:44;;;;;;;4.65;2.53;;;;;;;12.15;48.94;101958.13;4999471;28;20074;-70
2021/10/13 05:11:11;;;;;;;5.80;3.25;;;;;;;12.14;48.87;101965.44;4978797;28;20640;-70
2021/10/13 05:13:37;;;;;;;5.03;2.95;;;;;;;12.14;49.01;101961.81;4989745;28;20046;-70
2021/10/13 05:16:04;;;;;;;4.03;2.80;;;;;;;12.14;48.94;101961.81;4991540;28;20046;-70
2021/10/13 05:18:31;;;;;;;5.70;2.58;;;;;;;12.13;48.87;101963.66;4990486;28;20074;-70
2021/10/13 05:20:57;;;;;;;5.30;3.30;;;;;;;12.13;49.00;101965.50;4987945;28;20149;-70
2021/10/13 05:23:24;;;;;;;4.45;2.83;;;;;;;12.13;48.89;101970.94;4991136;28;20051;-70
2021/10/13 05:25:51;;;;;;;4.95;2.83;;;;;;;12.13;48.86;101973.69;4991526;28;20405;-70
2021/10/13 05:28:18;;;;;;;6.43;3.00;;;;;;;12.12;49.31;101977.34;4992768;28;20042;-70
2021/10/13 05:30:44;;;;;;;5.03;2.90;;;;;;;12.12;49.10;101978.25;4990396;28;20053;-70
2021/10/13 05:33:11;;;;;;;5.18;2.95;;;;;;;12.11;48.90;101986.47;4984802;28;20109;-70
2021/10/13 05:35:39;;;;;;;4.03;2.70;;;;;;;12.10;48.89;101988.34;4992493;28;20085;-70
2021/10/13 05:38:05;;;;;;;4.30;2.80;;;;;;;12.10;48.86;101990.19;4993893;28;20042;-70
2021/10/13 05:40:33;;;;;;;4.45;2.90;;;;;;;12.09;48.98;101993.88;4990469;28;20054;-70
2021/10/13 05:42:59;;;;;;;6.35;3.30;;;;;;;12.09;48.94;101985.72;4990766;28;20508;-70
2021/10/13 05:45:26;;;;;;;6.10;3.05;;;;;;;12.08;48.83;101990.28;4991259;28;20397;-70
2021/10/13 05:47:53;;;;;;;5.13;3.22;;;;;;;12.08;48.94;101995.72;4989507;28;20480;-70
2021/10/13 05:50:20;;;;;;;5.40;2.90;;;;;;;12.07;48.72;102002.13;4991596;28;20050;-70
2021/10/13 05:52:47;;;;;;;5.63;2.67;;;;;;;12.06;48.71;101997.63;4991971;28;20057;-70
2021/10/13 05:55:33;;;;;;;4.95;2.95;;;;;;;12.05;48.69;102009.50;4993467;28;20066;-71
2021/10/13 05:58:03;;;;;;;4.50;2.60;;;;;;;12.06;48.73;102010.38;4989517;28;20054;-70
2021/10/13 06:00:29;;;;;;;5.40;3.22;;;;;;;12.05;48.82;102017.66;4989479;28;20050;-70
2021/10/13 06:02:58;;;;;;;4.70;3.03;;;;;;;12.05;48.73;102011.31;4986000;28;20050;-69
2021/10/13 06:05:26;;;;;;;5.05;3.00;;;;;;;12.05;48.86;102024.94;4990668;28;20125;-70
2021/10/13 06:07:53;;;;;;;5.60;3.10;;;;;;;12.03;48.89;102026.84;4988622;28;20046;-69
2021/10/13 06:10:22;;;;;;;4.75;2.78;;;;;;;12.03;48.72;102029.56;4990118;28;20429;-69
2021/10/13 06:12:48;;;;;;;5.68;3.50;;;;;;;11.99;49.00;102012.56;4988560;28;20493;-69
2021/10/13 06:15:16;;;;;;;5.85;3.67;;;;;;;11.99;49.25;102037.03;4989692;28;20078;-69
2021/10/13 06:17:43;;;;;;;5.22;3.15;;;;;;;11.97;48.56;102040.81;4989709;28;20441;-69
2021/10/13 06:20:10;;;;;;;5.53;3.47;;;;;;;11.97;48.94;102038.09;4989660;28;20062;-69
2021/10/13 06:22:38;;;;;;;5.07;3.10;;;;;;;11.95;48.94;102038.16;4986569;28;20109;-70
2021/10/13 06:25:06;;;;;;;5.53;3.10;;;;;;;11.96;49.03;102034.47;4990625;28;20062;-69
2021/10/13 06:27:33;;;;;;;5.57;3.30;;;;;;;11.95;49.11;102042.72;4983902;28;20060;-69
2021/10/13 06:30:00;;;;;;;4.78;3.30;;;;;;;11.94;49.29;102050.00;4990162;28;20054;-69
2021/10/13 06:32:27;;;;;;;5.50;3.40;;;;;;;11.93;49.40;102045.56;4989626;28;20046;-70
2021/10/13 06:34:53;;;;;;;6.60;3.67;;;;;;;11.93;49.08;102052.84;4991585;28;20065;-70
2021/10/13 06:37:20;;;;;;;5.22;3.28;;;;;;;11.95;49.42;102057.22;4989043;28;20054;-71
2021/10/13 06:39:47;;;;;;;5.93;3.13;;;;;;;11.95;49.52;102065.38;4988703;28;20046;-71
2021/10/13 06:42:13;;;;;;;5.63;3.50;;;;;;;11.97;49.52;102068.03;4991984;28;20054;-71
2021/10/13 06:44:40;;;;;;;6.70;3.10;;;;;;;12.00;49.50;102059.69;4991021;28;20092;-71
2021/10/13 06:47:13;;;;;;;5.55;3.08;;;;;;;12.02;49.70;102068.69;4991324;28;20061;-70
2021/10/13 06:49:39;;;;;;;5.90;3.35;;;;;;;12.04;49.79;102072.16;4977934;28;20046;-71
2021/10/13 06:52:09;;;;;;;4.70;3.10;;;;;;;12.06;49.44;102068.41;4989243;28;20050;-69
2021/10/13 06:54:36;;;;;;;6.18;3.10;;;;;;;12.09;49.68;102064.66;4989584;28;20051;-70
2021/10/13 06:57:03;;;;;;;6.60;3.55;;;;;;;12.12;49.77;102059.91;4988761;28;20085;-69
2021/10/13 06:59:29;;;;;;;5.57;3.35;;;;;;;12.14;49.65;102065.28;4991022;28;20105;-70
2021/10/13 07:01:56;;;;;;;5.45;3.65;;;;;;;12.16;49.78;102066.97;4958577;28;20057;-69
2021/10/13 07:04:23;;;;;;;5.00;3.45;;;;;;;12.19;49.67;102071.34;4982706;28;20039;-70
2021/10/13 07:06:54;;;;;;;5.80;3.22;;;;;;;12.24;49.88;102065.66;4984689;28;20413;-70
2021/10/13 07:09:21;;;;;;;6.53;3.88;;;;;;;12.24;50.24;102065.66;4983502;28;20058;-70
2021/10/13 07:11:47;;;;;;;6.32;4.00;;;;;;;12.26;49.83;102070.06;4993115;28;20054;-70
2021/10/13 07:14:15;;;;;;;6.70;3.70;;;;;;;12.28;50.23;102064.50;4991266;28;20058;-70
2021/10/13 07:16:42;;;;;;;6.45;3.60;;;;;;;12.29;50.05;102061.72;4991760;28;20246;-70
2021/10/13 07:19:09;;;;;;;6.28;4.03;;;;;;;12.31;49.82;102058.91;4988974;28;20046;-70
2021/10/13 07:21:35;;;;;;;6.03;3.53;;;;;;;12.33;49.87;102065.16;4992615;28;20466;-70
2021/10/13 07:24:33;;;;;;;5.57;3.25;;;;;;;12.36;50.29;102081.31;4992143;28;20054;-70
2021/10/13 07:27:00;;;;;;;5.35;3.40;;;;;;;12.34;49.98;102078.69;4991739;28;20140;-70
2021/10/13 07:29:27;;;;;;;5.22;3.50;;;;;;;12.38;50.06;102083.00;4990412;28;20139;-70
2021/10/13 07:31:54;;;;;;;5.93;3.65;;;;;;;12.41;50.03;102080.13;4989723;28;20659;-70
2021/10/13 07:34:22;;;;;;;5.82;3.50;;;;;;;12.44;50.31;102082.66;4992298;28;20101;-70
2021/10/13 07:36:49;;;;;;;5.40;3.75;;;;;;;12.47;50.36;102090.66;4990293;28;20050;-70
2021/10/13 07:39:16;;;;;;;6.25;3.60;;;;;;;12.51;50.71;102083.22;4973267;28;20046;-70
2021/10/13 07:41:43;;;;;;;6.40;3.53;;;;;;;12.55;50.79;102085.69;4991784;28;20050;-70
2021/10/13 07:44:10;;;;;;;5.60;3.45;;;;;;;12.59;50.69;102091.84;4964438;28;20110;-70
2021/10/13 07:46:36;;;;;;;5.85;3.50;;;;;;;12.63;50.78;102087.09;4991075;28;20054;-70
2021/10/13 07:49:03;;;;;;;6.90;3.80;;;;;;;12.68;50.93;102085.88;4989525;28;20382;-70
2021/10/13 07:51:30;;;;;;;6.28;3.60;;;;;;;12.74;51.06;102087.38;4991282;28;20066;-70
2021/10/13 07:53:57;;;;;;;6.65;3.30;;;;;;;12.78;50.57;102087.09;5000457;28;20048;-70
2021/10/13 07:56:24;;;;;;;5.88;3.35;;;;;;;12.83;50.64;102084.13;4990450;28;20093;-70
2021/10/13 07:58:50;;;;;;;6.15;3.70;;;;;;;12.88;50.93;102098.38;4988230;28;20050;-70
2021/10/13 08:01:17;;;;;;;6.70;3.88;;;;;;;12.94;50.70;102089.84;4973264;28;20104;-70
2021/10/13 08:03:44;;;;;;;7.45;3.58;;;;;;;12.99;51.16;102109.56;4990750;28;20537;-70
2021/10/13 08:06:11;;;;;;;6.00;3.78;;;;;;;13.05;51.04;102106.47;4991237;28;20084;-70
2021/10/13 08:08:37;;;;;;;5.63;3.60;;;;;;;13.09;51.28;102109.91;4989616;28;20482;-70
2021/10/13 08:11:04;;;;;;;6.15;3.30;;;;;;;13.15;51.08;102104.13;4990851;28;20058;-70
2021/10/13 08:13:31;;;;;;;7.32;3.55;;;;;;;13.20;51.03;102105.63;4986536;28;20390;-70
2021/10/13 08:15:57;;;;;;;5.50;3.15;;;;;;;13.26;51.34;102110.72;4973694;28;20054;-70
2021/10/13 08:18:24;;;;;;;6.22;3.33;;;;;;;13.32;51.00;102110.38;4989679;28;20070;-70
2021/10/13 08:20:50;;;;;;;8.23;3.72;;;;;;;13.39;51.55;102110.88;4990515;28;20456;-70
2021/10/13 08:23:19;;;;;;;6.35;3.60;;;;;;;13.46;51.46;102123.19;4989769;28;20129;-71
2021/10/13 08:25:46;;;;;;;6.72;3.97;;;;;;;13.53;51.60;102126.44;4986543;28;20475;-71
2021/10/13 08:28:13;;;;;;;7.47;3.47;;;;;;;13.59;51.46;102121.47;4988950;28;20490;-71
2021/10/13 08:30:40;;;;;;;6.82;3.05;;;;;;;13.66;51.45;102130.22;4990835;28;20457;-70
2021/10/13 08:33:07;;;;;;;6.72;3.38;;;;;;;13.71;51.59;102134.41;4989237;28;20046;-71
2021/10/13 08:35:34;;;;;;;6.32;3.53;;;;;;;13.78;51.41;102129.47;4990854;28;20073;-71
2021/10/13 08:38:01;;;;;;;4.85;3.10;;;;;;;13.85;51.45;102136.31;4988043;28;20120;-71
2021/10/13 08:40:28;;;;;;;6.20;3.65;;;;;;;13.91;51.41;102133.22;4987377;28;20060;-71
2021/10/13 08:42:58;;;;;;;5.47;3.70;;;;;;;13.97;51.55;102135.59;4990039;28;20050;-71
2021/10/13 08:45:30;;;;;;;7.30;3.20;;;;;;;14.05;51.52;102125.06;4990766;28;20072;-71
2021/10/13 08:47:57;;;;;;;7.18;3.70;;;;;;;14.06;51.32;102132.28;4989482;28;20494;-71
2021/10/13 08:50:27;;;;;;;5.45;3.20;;;;;;;14.14;51.18;102128.22;4991291;28;20108;-71
2021/10/13 08:53:05;;;;;;;5.72;3.22;;;;;;;14.23;51.31;102127.66;4994520;28;20152;-71
2021/10/13 08:55:32;;;;;;;5.80;3.85;;;;;;;14.24;51.26;102122.09;4999742;28;20082;-70
2021/10/13 08:58:24;;;;;;;6.20;3.58;;;;;;;14.31;51.34;102131.66;4987484;28;20509;-71
2021/10/13 09:01:07;;;;;;;6.32;3.30;;;;;;;14.36;51.38;102131.38;4989050;28;20132;-71
2021/10/13 09:03:46;;;;;;;5.20;3.30;;;;;;;14.43;51.27;102141.84;4989277;28;20054;-71
2021/10/13 09:06:15;;;;;;;6.35;3.75;;;;;;;14.46;51.28;102136.19;4989869;28;20133;-71
2021/10/13 09:09:11;;;;;;;6.18;3.35;;;;;;;14.50;50.96;102142.34;4997170;28;20046;-71
2021/10/13 09:11:43;;;;;;;6.50;3.13;;;;;;;14.55;50.87;102140.22;4984049;28;20489;-71
2021/10/13 09:14:18;;;;;;;6.50;3.23;;;;;;;14.59;50.93;102136.28;4988492;28;20391;-71
2021/10/13 09:16:53;;;;;;;6.88;3.75;;;;;;;14.65;50.75;102135.94;4972596;28;20301;-72
2021/10/13 09:19:22;;;;;;;6.50;3.20;;;;;;;14.67;50.99;102141.28;4989070;28;20568;-71
2021/10/13 09:21:58;;;;;;;6.35;3.28;;;;;;;14.73;51.44;102136.31;4988308;28;20812;-71
2021/10/13 09:24:27;;;;;;;6.60;3.50;;;;;;;14.75;51.21;102139.81;4989703;28;20096;-71
2021/10/13 09:26:56;;;;;;;5.80;3.45;;;;;;;14.79;50.81;102130.44;4987734;28;20073;-71
2021/10/13 09:29:24;;;;;;;5.78;3.15;;;;;;;14.84;51.22;102144.69;4988984;28;20078;-71
2021/10/13 09:32:00;;;;;;;5.40;3.33;;;;;;;14.91;51.07;102139.69;4987745;28;20458;-72
2021/10/13 09:34:27;;;;;;;5.68;3.03;;;;;;;14.94;50.98;102144.97;4990056;28;20456;-71
2021/10/13 09:36:59;;;;;;;6.90;3.40;;;;;;;15.01;51.12;102148.19;4988372;28;20054;-71
2021/10/13 09:39:30;;;;;;;6.18;3.17;;;;;;;15.07;51.20;102147.81;4989498;28;20105;-71
2021/10/13 09:42:12;;;;;;;6.25;3.10;;;;;;;15.13;50.98;102152.88;4987590;28;20128;-71
2021/10/13 09:44:51;;;;;;;5.47;3.10;;;;;;;15.18;51.29;102145.22;4988159;28;20135;-71
2021/10/13 09:47:18;;;;;;;4.55;2.97;;;;;;;15.21;50.99;102148.66;4988327;28;20461;-71
2021/10/13 09:49:49;;;;;;;6.22;3.25;;;;;;;15.29;51.35;102141.81;4989117;28;20387;-71
2021/10/13 09:52:19;;;;;;;5.35;2.85;;;;;;;15.35;51.43;102147.75;4988074;28;20129;-71
2021/10/13 09:54:57;;;;;;;5.25;2.90;;;;;;;15.42;51.19;102137.25;4972227;28;20129;-71
2021/10/13 09:57:30;;;;;;;7.25;3.22;;;;;;;15.49;51.46;102144.06;4986541;28;20054;-71
2021/10/13 10:00:03;;;;;;;8.20;3.42;;;;;;;15.56;51.31;102145.47;4989952;28;20104;-71
2021/10/13 10:02:34;;;;;;;6.00;3.25;;;;;;;15.64;51.20;102139.47;4988571;28;20054;-71
2021/10/13 10:05:06;;;;;;;5.20;3.17;;;;;;;15.73;51.69;102141.59;4989677;28;20133;-71
2021/10/13 10:07:34;;;;;;;23.57;4.50;;;;;;;15.78;51.78;102142.16;4986993;28;20054;-70
2021/10/13 10:10:10;;;;;;;6.00;3.25;;;;;;;15.91;51.36;102135.72;4988780;28;20077;-69
2021/10/13 10:13:10;;;;;;;5.25;2.95;;;;;;;15.94;51.37;102142.84;4944365;28;20058;-70
2021/10/13 10:15:48;;;;;;;5.43;3.05;;;;;;;16.08;51.24;102144.63;4935584;28;20548;-70
2021/10/13 10:18:32;;;;;;;8.32;3.60;;;;;;;16.19;51.22;102139.28;4987338;28;20053;-70
2021/10/13 10:21:17;;;;;;;4.95;3.15;;;;;;;16.26;50.79;102135.13;4988721;28;20077;-69
2021/10/13 10:23:49;;;;;;;6.30;2.80;;;;;;;16.33;51.13;102136.44;4987794;28;20093;-69
2021/10/13 10:26:24;;;;;;;6.20;3.30;;;;;;;16.45;50.91;102142.94;4986288;28;20058;-70
2021/10/13 10:28:52;;;;;;;3.80;2.42;;;;;;;16.48;51.11;102124.38;4969825;28;20493;-70
2021/10/13 10:31:27;;;;;;;4.47;2.75;;;;;;;16.61;50.74;102129.91;4988033;28;20053;-70
2021/10/13 10:34:03;;;;;;;5.60;2.92;;;;;;;16.68;50.41;102133.97;4988219;28;20116;-70
2021/10/13 10:36:39;;;;;;;4.55;2.70;;;;;;;16.73;50.84;102135.38;4985869;28;20050;-70
2021/10/13 10:39:08;;;;;;;5.00;2.58;;;;;;;16.82;50.86;102133.84;4987858;28;20105;-70
2021/10/13 10:41:45;;;;;;;5.47;2.92;;;;;;;16.94;50.84;102143.06;4989277;28;20093;-70
2021/10/13 10:44:37;;;;;;;5.25;3.20;;;;;;;16.99;50.18;102130.75;4989272;28;20494;-70
2021/10/13 10:47:21;;;;;;;4.93;2.95;;;;;;;17.06;50.57;102142.13;4988142;28;20046;-70
2021/10/13 10:49:51;;;;;;;5.35;2.75;;;;;;;17.10;50.37;102143.69;4988538;28;20081;-70
2021/10/13 10:52:27;;;;;;;7.53;2.80;;;;;;;17.21;49.92;102145.63;4988359;28;20425;-70
2021/10/13 10:55:01;;;;;;;4.95;2.40;;;;;;;17.22;50.04;102137.25;5009152;28;20092;-70
2021/10/13 10:57:45;;;;;;;4.97;2.53;;;;;;;17.28;49.87;102145.06;4996956;28;20069;-70
2021/10/13 11:00:20;;;;;;;4.53;2.60;;;;;;;17.31;49.77;102136.59;4988423;28;20046;-70
2021/10/13 11:03:10;;;;;;;4.85;2.10;;;;;;;17.34;49.83;102147.34;4987434;28;20079;-70
2021/10/13 11:05:38;;;;;;;4.43;2.00;;;;;;;17.33;49.89;102148.34;4987039;28;20148;-70
2021/10/13 11:08:09;;;;;;;4.78;1.92;;;;;;;17.40;49.33;102152.38;4991539;28;20038;-69
2021/10/13 11:10:35;;;;;;;6.00;2.13;;;;;;;17.39;49.87;102153.34;4989975;28;20043;-70
2021/10/13 11:13:02;;;;;;;5.38;2.95;;;;;;;17.42;49.56;102144.03;4991733;28;20137;-69
2021/10/13 11:15:31;;;;;;;5.40;2.38;;;;;;;17.44;49.61;102153.91;4989530;28;20054;-70
2021/10/13 11:18:13;;;;;;;5.15;1.88;;;;;;;17.48;49.57;102155.41;4986768;28;20541;-69
2021/10/13 11:20:40;;;;;;;4.15;1.75;;;;;;;17.48;49.69;102149.03;4988607;28;20102;-70
2021/10/13 11:23:08;;;;;;;4.00;1.73;;;;;;;17.54;50.01;102156.84;4987608;28;20598;-70
2021/10/13 11:25:36;;;;;;;3.47;1.88;;;;;;;17.57;49.38;102148.34;4987758;28;20351;-70
2021/10/13 11:28:14;;;;;;;5.95;2.10;;;;;;;17.63;49.07;102153.41;4991828;28;20058;-70
2021/10/13 11:30:44;;;;;;;4.22;1.83;;;;;;;17.65;49.01;102153.28;4993092;28;20074;-70
2021/10/13 11:33:12;;;;;;;3.55;1.90;;;;;;;17.68;49.05;102151.22;4987519;28;20109;-70
2021/10/13 11:35:41;;;;;;;3.35;1.60;;;;;;;17.70;49.21;102141.00;4992100;28;20133;-69
2021/10/13 11:38:17;;;;;;;3.30;1.77;;;;;;;17.76;48.62;102145.13;4990099;28;20053;-70